createdAt,value
2022-09-14T00:01:30.103Z,546
2022-09-14T00:07:00.504Z,549
2022-09-14T00:12:30.117Z,552
2022-09-14T00:18:00.457Z,560
2022-09-14T00:23:30.937Z,563
2022-09-14T00:29:01.437Z,566
2022-09-14T00:34:30.922Z,564
2022-09-14T00:40:01.477Z,562
2022-09-14T00:45:31.928Z,564
2022-09-14T00:51:01.386Z,570
2022-09-14T00:56:31.830Z,576
2022-09-14T01:02:02.474Z,573
2022-09-14T01:07:31.881Z,573
2022-09-14T01:13:02.368Z,575
2022-09-14T01:18:32.900Z,582
2022-09-14T01:24:02.390Z,586
2022-09-14T01:29:32.850Z,587
2022-09-14T01:35:03.339Z,587
2022-09-14T01:40:32.888Z,597
2022-09-14T01:46:03.401Z,606
2022-09-14T01:51:32.828Z,605
2022-09-14T01:57:03.242Z,611
2022-09-14T02:02:33.779Z,611
2022-09-14T02:08:03.236Z,619
2022-09-14T02:13:32.712Z,621
2022-09-14T02:19:03.189Z,623
2022-09-14T02:24:33.681Z,626
2022-09-14T02:30:03.140Z,626
2022-09-14T02:35:33.657Z,624
2022-09-14T02:41:04.126Z,629
2022-09-14T02:46:33.616Z,631
2022-09-14T02:52:04.102Z,650
2022-09-14T02:57:33.645Z,644
2022-09-14T03:03:04.017Z,648
2022-09-14T03:08:34.501Z,644
2022-09-14T03:14:04.031Z,638
2022-09-14T03:19:34.495Z,633
2022-09-14T03:25:04.932Z,630
2022-09-14T03:30:35.425Z,631
2022-09-14T03:36:04.889Z,634
2022-09-14T03:41:35.545Z,633
2022-09-14T03:47:06.042Z,630
2022-09-14T03:52:36.595Z,641
2022-09-14T03:58:07.053Z,634
2022-09-14T04:03:36.551Z,635
2022-09-14T04:09:07.034Z,628
2022-09-14T04:14:37.519Z,625
2022-09-14T04:20:08.005Z,621
2022-09-14T04:25:37.464Z,634
2022-09-14T04:31:07.992Z,631
2022-09-14T04:36:38.464Z,628
2022-09-14T04:42:07.919Z,628
2022-09-14T04:47:38.399Z,630
2022-09-14T04:53:08.108Z,635
2022-09-14T04:58:38.466Z,637
2022-09-14T05:04:08.958Z,637
2022-09-14T05:09:38.489Z,630
2022-09-14T05:15:08.917Z,632
2022-09-14T05:20:39.409Z,627
2022-09-14T05:26:08.898Z,622
2022-09-14T05:31:39.435Z,622
2022-09-14T05:37:09.828Z,626
2022-09-14T05:42:39.350Z,626
2022-09-14T05:48:09.823Z,625
2022-09-14T05:53:40.301Z,627
2022-09-14T05:59:09.819Z,625
2022-09-14T06:04:40.289Z,629
2022-09-14T06:10:10.771Z,625
2022-09-14T06:15:41.281Z,625
2022-09-14T06:21:10.729Z,624
2022-09-14T06:26:41.207Z,625
2022-09-14T06:32:11.696Z,626
2022-09-14T06:37:41.165Z,625
2022-09-14T06:43:11.629Z,619
2022-09-14T06:48:41.219Z,619
2022-09-14T06:54:11.602Z,623
2022-09-14T06:59:42.077Z,620
2022-09-14T07:05:11.672Z,621
2022-09-14T07:10:42.029Z,614
2022-09-14T07:16:12.519Z,609
2022-09-14T07:21:42.023Z,611
2022-09-14T07:27:12.496Z,607
2022-09-14T07:32:42.968Z,610
2022-09-14T07:38:12.562Z,602
2022-09-14T07:43:42.920Z,601
2022-09-14T07:49:12.424Z,605
2022-09-14T07:54:42.922Z,598
2022-09-14T08:00:13.345Z,606
2022-09-14T08:05:42.838Z,597
2022-09-14T08:11:13.355Z,609
2022-09-14T08:16:43.873Z,609
2022-09-14T08:22:13.287Z,602
2022-09-14T08:27:43.785Z,595
2022-09-14T08:33:14.241Z,597
2022-09-14T08:38:43.740Z,599
2022-09-14T08:44:14.243Z,600
2022-09-14T08:49:44.686Z,594
2022-09-14T08:55:14.204Z,592
2022-09-14T09:00:44.724Z,592
2022-09-14T09:06:16.206Z,588
2022-09-14T09:11:44.621Z,587
2022-09-14T09:17:15.124Z,585
2022-09-14T09:22:45.556Z,584
2022-09-14T09:28:15.065Z,584
2022-09-14T09:33:45.545Z,583
2022-09-14T09:39:16.008Z,582
2022-09-14T09:44:45.491Z,586
2022-09-14T09:50:16.081Z,587
2022-09-14T09:55:46.457Z,583
2022-09-14T10:01:15.998Z,582
2022-09-14T10:06:46.578Z,578
2022-09-14T10:12:16.885Z,578
2022-09-14T10:17:47.462Z,580
2022-09-14T10:23:16.901Z,579
2022-09-14T10:28:47.315Z,584
2022-09-14T10:34:17.442Z,579
2022-09-14T10:39:47.480Z,582
2022-09-14T10:45:17.770Z,581
2022-09-14T10:50:47.258Z,575
2022-09-14T10:56:17.833Z,575
2022-09-14T11:01:48.365Z,573
2022-09-14T11:07:17.712Z,573
2022-09-14T11:12:48.280Z,571
2022-09-14T11:18:18.664Z,577
2022-09-14T11:23:49.187Z,634
2022-09-14T11:29:18.648Z,645
2022-09-14T11:34:49.116Z,643
2022-09-14T11:40:18.658Z,617
2022-09-14T11:45:49.078Z,626
2022-09-14T11:51:19.522Z,629
2022-09-14T11:56:49.019Z,629
2022-09-14T12:02:19.606Z,626
2022-09-14T12:07:48.967Z,624
2022-09-14T12:13:19.465Z,616
2022-09-14T12:18:50.080Z,607
2022-09-14T12:24:19.397Z,620
2022-09-14T12:29:49.868Z,614
2022-09-14T12:35:20.383Z,615
2022-09-14T12:40:49.806Z,614
2022-09-14T12:46:20.491Z,613
2022-09-14T12:51:49.817Z,610
2022-09-14T12:57:20.278Z,608
2022-09-14T13:02:50.845Z,616
2022-09-14T13:08:20.351Z,609
2022-09-14T13:13:50.717Z,608
2022-09-14T13:19:21.169Z,607
2022-09-14T13:24:49.849Z,605
2022-09-14T13:30:20.153Z,605
2022-09-14T13:35:50.609Z,604
2022-09-14T13:41:20.136Z,610
2022-09-14T13:46:50.572Z,604
2022-09-14T13:52:21.163Z,605
2022-09-14T13:57:50.768Z,599
2022-09-14T14:03:21.144Z,606
2022-09-14T14:08:51.632Z,604
2022-09-14T14:14:21.139Z,605
2022-09-14T14:19:51.598Z,601
2022-09-14T14:25:22.055Z,600
2022-09-14T14:30:51.581Z,598
2022-09-14T14:36:22.045Z,589
2022-09-14T14:41:52.542Z,594
2022-09-14T14:47:22.010Z,596
2022-09-14T14:52:52.580Z,594
2022-09-14T14:58:22.054Z,584
2022-09-14T15:03:52.706Z,591
2022-09-14T15:09:23.055Z,590
2022-09-14T15:14:52.522Z,587
2022-09-14T15:20:23.061Z,587
2022-09-14T15:25:53.484Z,585
2022-09-14T15:31:23.005Z,583
2022-09-14T15:36:53.477Z,581
2022-09-14T15:42:22.945Z,579
2022-09-14T15:47:53.475Z,586
2022-09-14T15:53:23.931Z,584
2022-09-14T15:58:53.474Z,581
2022-09-14T16:04:23.863Z,580
2022-09-14T16:09:58.723Z,587
2022-09-14T16:15:25.061Z,583
2022-09-14T16:20:55.534Z,582
2022-09-14T16:26:26.030Z,582
2022-09-14T16:31:55.633Z,583
2022-09-14T16:37:25.968Z,584
2022-09-14T16:42:56.561Z,582
2022-09-14T16:48:25.944Z,582
2022-09-14T16:53:56.409Z,580
2022-09-14T16:59:25.903Z,578
2022-09-14T17:04:56.364Z,580
2022-09-14T17:10:25.863Z,579
2022-09-14T17:15:56.457Z,585
2022-09-14T17:21:26.837Z,579
2022-09-14T17:26:56.331Z,581
2022-09-14T17:32:26.829Z,578
2022-09-14T17:37:57.265Z,577
2022-09-14T17:43:26.769Z,586
2022-09-14T17:48:57.271Z,583
2022-09-14T17:54:27.727Z,588
2022-09-14T17:59:57.198Z,580
2022-09-14T18:05:27.702Z,576
2022-09-14T18:10:58.168Z,580
2022-09-14T18:16:27.787Z,581
2022-09-14T18:21:58.152Z,578
2022-09-14T18:27:27.607Z,579
2022-09-14T18:32:58.089Z,582
2022-09-14T18:38:28.588Z,576
2022-09-14T18:43:58.044Z,576
2022-09-14T18:49:28.499Z,578
2022-09-14T18:54:59.020Z,576
2022-09-14T19:00:28.462Z,575
2022-09-14T19:05:58.941Z,573
2022-09-14T19:11:29.449Z,570
2022-09-14T19:16:58.906Z,570
2022-09-14T19:22:29.394Z,573
2022-09-14T19:27:59.860Z,576
2022-09-14T19:33:29.349Z,577
2022-09-14T19:38:59.826Z,573
2022-09-14T19:44:29.415Z,570
2022-09-14T19:49:59.895Z,570
2022-09-14T19:55:30.344Z,571
2022-09-14T20:00:59.944Z,569
2022-09-14T20:06:30.298Z,567
2022-09-14T20:12:00.777Z,568
2022-09-14T20:17:30.364Z,572
2022-09-14T20:23:00.752Z,571
2022-09-14T20:28:31.237Z,568
2022-09-14T20:34:00.832Z,563
2022-09-14T20:39:31.210Z,560
2022-09-14T20:45:00.683Z,561
2022-09-14T20:50:31.277Z,564
2022-09-14T20:56:00.737Z,562
2022-09-14T21:01:31.386Z,560
2022-09-14T21:07:01.776Z,559
2022-09-14T21:12:31.249Z,558
2022-09-14T21:18:01.730Z,559
2022-09-14T21:23:31.237Z,563
2022-09-14T21:29:01.703Z,564
2022-09-14T21:34:32.180Z,565
2022-09-14T21:40:01.756Z,559
2022-09-14T21:45:32.125Z,565
2022-09-14T21:51:02.616Z,560
2022-09-14T21:56:32.123Z,563
2022-09-14T22:02:02.627Z,566
2022-09-14T22:07:32.072Z,563
2022-09-14T22:13:02.568Z,558
2022-09-14T22:18:33.135Z,553
2022-09-14T22:24:02.619Z,552
2022-09-14T22:29:33.114Z,559
2022-09-14T22:35:03.578Z,554
2022-09-14T22:40:33.098Z,557
2022-09-14T22:46:03.663Z,552
2022-09-14T22:51:34.010Z,554
2022-09-14T22:57:03.493Z,556
2022-09-14T23:02:34.080Z,554
2022-09-14T23:08:04.439Z,557
2022-09-14T23:13:33.921Z,554
2022-09-14T23:19:04.424Z,547
2022-09-14T23:24:34.951Z,547
2022-09-14T23:30:04.465Z,546
2022-09-14T23:35:37.763Z,546
2022-09-14T23:41:05.396Z,548
2022-09-14T23:46:34.872Z,543
2022-09-14T23:52:05.362Z,548
2022-09-14T23:57:34.841Z,550
